Terminal Aerodrome Forecast
Issued by NWS

Home | Current Version | Previous Version | Text Only | Print | Product List | Glossary On
Versions: 1 2 3 4 5 6 7 8 9 10 11 12 13 14 15 16 17 18 19
000
FTUS44 KBMX 270520
TAFTOI
TAF
KTOI 270520Z 2706/2806 VRB03KT P6SM SCT060
     FM271500 24006KT P6SM SCT050 SCT100 PROB30 2718/2724 6SM -TSRA
      BKN040CB=

USA.gov is the U.S. government's official web portal to all federal, state and local government web resources and services.